Terminal Aerodrome Forecast
Issued by NWS

Home | Current Version | Previous Version | Text Only | Print | Product List | Glossary On
Versions: 1 2 3 4 5 6 7 8 9 10 11 12 13 14 15 16 17 18 19 20
000
FTUS44 KLZK 041100
TAFADF
TAF
KADF 041137Z 0412/0512 20005KT 6SM -RA BR VCSH SCT005 BKN035 OVC050
      TEMPO 0412/0415 3SM -TSRA BR BKN003 OVC010CB
     FM041600 22007KT P6SM VCSH SCT020 BKN035 OVC100
     FM041900 23006KT P6SM VCTS SCT050CB SCT100 BKN250=

USA.gov is the U.S. government's official web portal to all federal, state and local government web resources and services.